This is the latest recevied weather packets stored in our database for station/object G8LMY. If no packets are shown the sender has not sent any weather packets the latest 10 day(s).
| Time | Temp. | Humidity | Pressure | Rain* | Wind** | Luminosity | Snow |
|---|---|---|---|---|---|---|---|
| 1777306135 | 20.56° C | 41% | 1021 hPa | 0 mm | - | - | - |
| 1777305234 | 21.67° C | 37% | 1021 hPa | 0 mm | - | - | - |
| 1777304334 | 22.78° C | 33% | 1021 hPa | 0 mm | - | - | - |
| 1777303434 | 23.89° C | 30% | 1021.1 hPa | 0 mm | - | - | - |
| 1777301634 | 23.89° C | 32% | 1021.3 hPa | 0 mm | - | - | - |
| 1777300734 | 23.89° C | 29% | 1021.6 hPa | 0 mm | - | - | - |
| 1777299834 | 23.33° C | 31% | 1021.8 hPa | 0 mm | - | - | - |
| 1777298936 | 23.33° C | 33% | 1022.1 hPa | 0 mm | - | - | - |
| 1777298034 | 22.78° C | 37% | 1022.2 hPa | 0 mm | - | - | - |
| 1777297134 | 22.22° C | 37% | 1022.4 hPa | 0 mm | - | - | - |
| 1777295334 | 22.22° C | 34% | 1022.7 hPa | 0 mm | - | - | - |
| 1777294434 | 22.78° C | 35% | 1022.8 hPa | 0 mm | - | - | - |
| 1777292634 | 21.67° C | 38% | 1023 hPa | 0 mm | - | - | - |
| 1777291734 | 21.11° C | 39% | 1023.1 hPa | 0 mm | - | - | - |
| 1777290835 | 20.56° C | 39% | 1023.2 hPa | 0 mm | - | - | - |
| 1777289935 | 20° C | 42% | 1023.3 hPa | 0 mm | - | - | - |
| 1777289035 | 19.44° C | 41% | 1023.4 hPa | 0 mm | - | - | - |
| 1777288135 | 19.44° C | 41% | 1023.5 hPa | 0 mm | - | - | - |
| 1777287235 | 18.33° C | 45% | 1023.7 hPa | 0 mm | - | - | - |
| 1777286335 | 17.78° C | 47% | 1023.7 hPa | 0 mm | - | - | - |
| 1777285435 | 16.67° C | 50% | 1023.6 hPa | 0 mm | - | - | - |
| 1777284535 | 16.11° C | 55% | 1024 hPa | 0 mm | - | - | - |
| 1777280035 | 13.33° C | 64% | 1024.4 hPa | 0 mm | - | - | - |
| 1777279135 | 12.78° C | 69% | 1024.6 hPa | 0 mm | - | - | - |
| 1777277336 | 11.11° C | 80% | 1024.6 hPa | 0 mm | - | - | - |
* Rain latest hour (hover to see other rain measurements)
** Current wind speed in m/s (hover to see current wind gust speed)